createdAt,value
2018-10-16T00:02:16.006Z,17.80
2018-10-16T00:04:43.439Z,17.80
2018-10-16T00:07:10.913Z,17.80
2018-10-16T00:09:38.406Z,17.70
2018-10-16T00:12:07.016Z,17.70
2018-10-16T00:14:34.463Z,17.70
2018-10-16T00:17:02.635Z,17.70
2018-10-16T00:19:30.631Z,17.60
2018-10-16T00:21:58.184Z,17.60
2018-10-16T00:24:25.620Z,17.60
2018-10-16T00:26:53.030Z,17.60
2018-10-16T00:29:21.072Z,17.60
2018-10-16T00:31:48.511Z,17.50
2018-10-16T00:34:15.919Z,17.50
2018-10-16T00:36:43.350Z,17.50
2018-10-16T00:39:12.718Z,17.50
2018-10-16T00:41:40.579Z,17.50
2018-10-16T00:44:09.578Z,17.50
2018-10-16T00:46:37.758Z,17.40
2018-10-16T00:49:05.261Z,17.40
2018-10-16T00:51:32.679Z,17.40
2018-10-16T00:54:00.396Z,17.40
2018-10-16T00:56:27.815Z,17.40
2018-10-16T00:58:55.305Z,17.30
2018-10-16T01:01:28.272Z,17.30
2018-10-16T01:03:55.685Z,17.30
2018-10-16T01:06:23.115Z,17.30
2018-10-16T01:08:50.556Z,17.30
2018-10-16T01:11:18.458Z,17.30
2018-10-16T01:13:45.910Z,17.30
2018-10-16T01:16:13.308Z,17.20
2018-10-16T01:18:40.771Z,17.20
2018-10-16T01:21:08.206Z,17.20
2018-10-16T01:23:35.627Z,17.20
2018-10-16T01:26:03.069Z,17.20
2018-10-16T01:28:30.468Z,17.10
2018-10-16T01:30:57.895Z,17.20
2018-10-16T01:33:25.338Z,17.10
2018-10-16T01:35:52.745Z,17.20
2018-10-16T01:38:20.185Z,17.10
2018-10-16T01:40:47.598Z,17.10
2018-10-16T01:43:15.118Z,17.10
2018-10-16T01:45:42.536Z,17.10
2018-10-16T01:48:10.094Z,17.10
2018-10-16T01:50:37.523Z,17.10
2018-10-16T01:53:04.960Z,17.10
2018-10-16T01:55:32.346Z,17.10
2018-10-16T01:57:59.765Z,17.10
2018-10-16T02:00:27.206Z,17.10
2018-10-16T02:02:54.646Z,17.00
2018-10-16T02:05:22.083Z,17.10
2018-10-16T02:07:49.475Z,17.00
2018-10-16T02:10:16.957Z,17.00
2018-10-16T02:12:44.364Z,17.00
2018-10-16T02:15:11.820Z,17.00
2018-10-16T02:17:39.903Z,17.10
2018-10-16T02:20:07.971Z,17.00
2018-10-16T02:22:35.448Z,17.00
2018-10-16T02:25:02.897Z,17.00
2018-10-16T02:27:30.328Z,17.00
2018-10-16T02:29:57.743Z,17.00
2018-10-16T02:32:25.183Z,17.00
2018-10-16T02:34:52.619Z,17.00
2018-10-16T02:37:20.024Z,17.00
2018-10-16T02:39:47.426Z,17.00
2018-10-16T02:42:14.918Z,17.00
2018-10-16T02:44:42.343Z,16.90
2018-10-16T02:47:09.854Z,16.90
2018-10-16T02:49:37.367Z,16.90
2018-10-16T02:52:05.090Z,16.90
2018-10-16T02:54:32.498Z,16.90
2018-10-16T02:56:59.891Z,16.80
2018-10-16T02:59:27.551Z,16.80
2018-10-16T03:01:54.967Z,16.80
2018-10-16T03:04:22.388Z,16.90
2018-10-16T03:06:49.832Z,16.80
2018-10-16T03:09:17.247Z,16.80
2018-10-16T03:11:44.693Z,16.80
2018-10-16T03:14:12.115Z,16.80
2018-10-16T03:16:39.550Z,16.80
2018-10-16T03:19:06.990Z,16.80
2018-10-16T03:21:34.382Z,14.50
2018-10-16T03:24:01.785Z,16.80
2018-10-16T03:26:29.194Z,16.70
2018-10-16T03:28:56.638Z,16.70
2018-10-16T03:31:24.067Z,16.70
2018-10-16T03:33:51.472Z,16.70
2018-10-16T03:36:18.883Z,16.70
2018-10-16T03:38:46.271Z,16.70
2018-10-16T03:41:13.714Z,16.70
2018-10-16T03:43:41.098Z,16.60
2018-10-16T03:46:08.550Z,16.60
2018-10-16T03:48:35.930Z,16.60
2018-10-16T03:51:03.528Z,16.50
2018-10-16T03:53:31.019Z,16.60
2018-10-16T03:55:58.468Z,16.50
2018-10-16T03:58:26.018Z,16.50
2018-10-16T04:00:53.434Z,16.50
2018-10-16T04:03:20.877Z,16.40
2018-10-16T04:05:48.302Z,16.40
2018-10-16T04:08:15.714Z,16.40
2018-10-16T04:10:43.150Z,16.40
2018-10-16T04:13:10.558Z,16.40
2018-10-16T04:15:37.968Z,16.40
2018-10-16T04:18:05.420Z,16.40
2018-10-16T04:20:32.860Z,16.40
2018-10-16T04:23:00.319Z,16.40
2018-10-16T04:25:27.714Z,16.30
2018-10-16T04:27:55.115Z,16.30
2018-10-16T04:30:22.542Z,16.30
2018-10-16T04:32:49.939Z,16.30
2018-10-16T04:35:17.786Z,16.30
2018-10-16T04:37:46.023Z,16.30
2018-10-16T04:40:13.689Z,16.30
2018-10-16T04:42:41.848Z,16.30
2018-10-16T04:45:10.434Z,16.30
2018-10-16T04:47:38.443Z,16.20
2018-10-16T04:50:05.980Z,16.20
2018-10-16T04:52:33.429Z,16.20
2018-10-16T04:55:00.842Z,16.20
2018-10-16T04:57:28.283Z,16.20
2018-10-16T04:59:55.686Z,16.20
2018-10-16T05:02:23.209Z,16.20
2018-10-16T05:04:50.602Z,16.20
2018-10-16T05:07:18.045Z,16.20
2018-10-16T05:09:45.457Z,16.10
2018-10-16T05:12:12.926Z,16.10
2018-10-16T05:14:40.363Z,16.10
2018-10-16T05:17:07.773Z,16.10
2018-10-16T05:19:35.224Z,16.10
2018-10-16T05:22:02.675Z,16.10
2018-10-16T05:24:30.121Z,16.10
2018-10-16T05:26:57.535Z,16.00
2018-10-16T05:29:24.965Z,16.00
2018-10-16T05:31:52.429Z,16.00
2018-10-16T05:34:19.827Z,16.00
2018-10-16T05:36:47.258Z,16.00
2018-10-16T05:39:14.769Z,16.00
2018-10-16T05:41:42.176Z,16.00
2018-10-16T05:44:09.633Z,16.00
2018-10-16T05:46:37.078Z,16.00
2018-10-16T05:49:04.840Z,16.00
2018-10-16T05:51:32.293Z,16.00
2018-10-16T05:53:59.723Z,16.00
2018-10-16T05:56:27.156Z,16.00
2018-10-16T05:58:54.558Z,16.00
2018-10-16T06:01:21.981Z,16.10
2018-10-16T06:03:49.418Z,19.70
2018-10-16T06:06:16.849Z,16.10
2018-10-16T06:08:44.300Z,16.10
2018-10-16T06:11:11.742Z,13.50
2018-10-16T06:13:39.213Z,15.90
2018-10-16T06:16:06.754Z,16.10
2018-10-16T06:18:34.067Z,16.20
2018-10-16T06:21:01.491Z,16.10
2018-10-16T06:23:28.912Z,16.20
2018-10-16T06:25:56.339Z,16.20
2018-10-16T06:28:25.066Z,16.20
2018-10-16T06:30:52.568Z,16.20
2018-10-16T06:33:22.716Z,16.30
2018-10-16T06:35:50.265Z,16.30
2018-10-16T06:38:17.735Z,16.30
2018-10-16T06:40:45.208Z,16.30
2018-10-16T06:43:12.660Z,16.30
2018-10-16T06:45:40.104Z,16.40
2018-10-16T06:48:08.059Z,16.40
2018-10-16T06:50:35.302Z,16.40
2018-10-16T06:53:02.878Z,16.40
2018-10-16T06:55:30.247Z,16.50
2018-10-16T06:57:57.683Z,16.50
2018-10-16T07:00:25.111Z,16.50
2018-10-16T07:02:52.522Z,16.60
2018-10-16T07:05:19.962Z,16.60
2018-10-16T07:07:47.479Z,16.60
2018-10-16T07:10:15.020Z,16.70
2018-10-16T07:12:42.550Z,16.70
2018-10-16T07:15:09.994Z,16.80
2018-10-16T07:17:37.409Z,16.80
2018-10-16T07:20:06.163Z,16.90
2018-10-16T07:22:33.582Z,16.90
2018-10-16T07:25:00.991Z,17.00
2018-10-16T07:27:28.686Z,17.00
2018-10-16T07:29:56.175Z,17.10
2018-10-16T07:32:23.560Z,17.20
2018-10-16T07:34:50.993Z,17.30
2018-10-16T07:37:18.455Z,17.30
2018-10-16T07:39:45.848Z,17.30
2018-10-16T07:42:13.347Z,17.40
2018-10-16T07:44:40.778Z,17.50
2018-10-16T07:47:08.296Z,17.60
2018-10-16T07:49:35.716Z,17.60
2018-10-16T07:52:03.152Z,17.70
2018-10-16T07:54:30.551Z,17.80
2018-10-16T07:56:57.973Z,17.90
2018-10-16T07:59:25.437Z,18.10
2018-10-16T08:01:52.833Z,18.20
2018-10-16T08:04:20.311Z,18.40
2018-10-16T08:06:47.714Z,18.50
2018-10-16T08:09:16.045Z,18.90
2018-10-16T08:11:44.291Z,19.40
2018-10-16T08:14:12.451Z,20.10
2018-10-16T08:16:39.907Z,20.90
2018-10-16T08:19:07.313Z,21.90
2018-10-16T08:21:34.731Z,23.00
2018-10-16T08:24:02.367Z,24.10
2018-10-16T08:26:29.803Z,25.30
2018-10-16T08:28:57.231Z,26.40
2018-10-16T08:31:24.645Z,27.60
2018-10-16T08:33:52.059Z,28.70
2018-10-16T08:36:19.554Z,29.70
2018-10-16T08:38:53.221Z,30.70
2018-10-16T08:41:24.570Z,31.70
2018-10-16T08:44:35.637Z,32.70
2018-10-16T08:47:14.471Z,33.70
2018-10-16T08:49:53.509Z,34.90
2018-10-16T08:52:20.966Z,35.80
2018-10-16T08:54:48.456Z,36.70
2018-10-16T08:57:15.966Z,37.50
2018-10-16T08:59:43.380Z,38.30
2018-10-16T09:02:11.124Z,39.00
2018-10-16T09:04:38.593Z,39.60
2018-10-16T09:07:06.043Z,40.20
2018-10-16T09:09:33.585Z,40.60
2018-10-16T09:12:01.078Z,41.10
2018-10-16T09:14:28.544Z,41.60
2018-10-16T09:16:56.021Z,42.00
2018-10-16T09:19:23.484Z,42.30
2018-10-16T09:21:50.914Z,42.60
2018-10-16T09:24:18.418Z,42.80
2018-10-16T09:26:45.859Z,43.10
2018-10-16T09:29:13.285Z,43.30
2018-10-16T09:31:40.750Z,43.50
2018-10-16T09:34:08.173Z,43.80
2018-10-16T09:36:35.596Z,43.90
2018-10-16T09:39:04.360Z,43.90
2018-10-16T09:41:31.774Z,43.70
2018-10-16T09:43:59.211Z,43.30
2018-10-16T09:46:26.626Z,42.70
2018-10-16T09:48:54.017Z,42.10
2018-10-16T09:51:21.467Z,41.40
2018-10-16T09:53:48.883Z,40.80
2018-10-16T09:56:16.343Z,40.10
2018-10-16T09:58:43.760Z,39.50
2018-10-16T10:01:16.756Z,38.90
2018-10-16T10:03:44.208Z,38.20
2018-10-16T10:06:11.653Z,37.60
2018-10-16T10:08:39.095Z,37.10
2018-10-16T10:11:06.639Z,36.70
2018-10-16T10:13:33.930Z,36.70
2018-10-16T10:16:01.371Z,37.00
2018-10-16T10:18:28.846Z,37.50
2018-10-16T10:20:56.249Z,38.10
2018-10-16T10:23:23.730Z,38.70
2018-10-16T10:25:51.099Z,39.60
2018-10-16T10:28:18.498Z,40.30
2018-10-16T10:30:45.983Z,41.10
2018-10-16T10:33:13.386Z,41.70
2018-10-16T10:35:40.916Z,42.40
2018-10-16T10:38:08.202Z,43.00
2018-10-16T10:40:35.666Z,43.60
2018-10-16T10:43:03.065Z,44.10
2018-10-16T10:45:30.461Z,44.50
2018-10-16T10:47:57.927Z,45.00
2018-10-16T10:50:25.537Z,45.30
2018-10-16T10:52:52.835Z,45.70
2018-10-16T10:55:20.234Z,46.00
2018-10-16T10:57:47.654Z,46.20
2018-10-16T11:00:15.098Z,46.40
2018-10-16T11:02:44.658Z,46.50
2018-10-16T11:05:12.103Z,46.70
2018-10-16T11:07:39.615Z,46.80
2018-10-16T11:10:09.507Z,47.00
2018-10-16T11:12:36.951Z,47.00
2018-10-16T11:15:05.505Z,47.20
2018-10-16T11:17:32.935Z,47.20
2018-10-16T11:20:00.371Z,47.40
2018-10-16T11:22:27.813Z,47.40
2018-10-16T11:24:55.245Z,47.40
2018-10-16T11:27:22.677Z,47.50
2018-10-16T11:29:50.090Z,47.50
2018-10-16T11:32:17.552Z,47.50
2018-10-16T11:34:44.993Z,47.50
2018-10-16T11:37:12.414Z,47.50
2018-10-16T11:39:39.865Z,47.50
2018-10-16T11:42:07.259Z,47.40
2018-10-16T11:44:34.699Z,47.40
2018-10-16T11:47:02.149Z,47.30
2018-10-16T11:49:29.589Z,47.30
2018-10-16T11:51:57.057Z,47.30
2018-10-16T11:54:24.475Z,47.30
2018-10-16T11:56:51.876Z,47.10
2018-10-16T11:59:19.402Z,47.10
2018-10-16T12:01:46.795Z,47.00
2018-10-16T12:04:14.219Z,46.90
2018-10-16T12:06:41.670Z,46.70
2018-10-16T12:09:09.648Z,46.50
2018-10-16T12:11:37.538Z,46.40
2018-10-16T12:14:05.674Z,46.20
2018-10-16T12:16:38.613Z,46.00
2018-10-16T12:19:10.569Z,45.70
2018-10-16T12:21:37.942Z,45.20
2018-10-16T12:24:05.967Z,44.60
2018-10-16T12:26:33.259Z,43.80
2018-10-16T12:29:00.673Z,43.10
2018-10-16T12:31:28.151Z,42.30
2018-10-16T12:33:55.586Z,41.60
2018-10-16T12:36:23.079Z,41.00
2018-10-16T12:38:50.514Z,40.50
2018-10-16T12:41:18.148Z,40.00
2018-10-16T12:43:45.493Z,39.60
2018-10-16T12:46:13.019Z,39.30
2018-10-16T12:48:40.434Z,39.00
2018-10-16T12:51:07.927Z,38.80
2018-10-16T12:53:35.381Z,38.80
2018-10-16T12:56:02.843Z,38.80
2018-10-16T12:58:30.256Z,38.80
2018-10-16T13:00:57.721Z,39.00
2018-10-16T13:03:25.222Z,39.20
2018-10-16T13:05:52.754Z,39.40
2018-10-16T13:08:20.254Z,39.60
2018-10-16T13:10:47.680Z,39.90
2018-10-16T13:13:15.126Z,40.10
2018-10-16T13:15:42.540Z,40.30
2018-10-16T13:18:09.980Z,40.50
2018-10-16T13:20:37.409Z,40.60
2018-10-16T13:23:04.980Z,40.80
2018-10-16T13:25:32.302Z,41.00
2018-10-16T13:27:59.787Z,41.10
2018-10-16T13:30:27.217Z,41.20
2018-10-16T13:32:54.635Z,41.30
2018-10-16T13:35:22.064Z,41.40
2018-10-16T13:37:49.843Z,41.40
2018-10-16T13:40:17.252Z,41.40
2018-10-16T13:42:44.820Z,41.40
2018-10-16T13:45:13.564Z,41.40
2018-10-16T13:47:41.069Z,41.30
2018-10-16T13:50:10.201Z,41.30
2018-10-16T13:52:37.709Z,41.20
2018-10-16T13:55:05.378Z,41.10
2018-10-16T13:57:32.979Z,41.00
2018-10-16T14:00:00.404Z,40.90
2018-10-16T14:02:27.852Z,40.90
2018-10-16T14:04:55.351Z,40.70
2018-10-16T14:07:22.711Z,40.50
2018-10-16T14:09:50.190Z,40.40
2018-10-16T14:12:17.602Z,40.10
2018-10-16T14:14:45.047Z,39.70
2018-10-16T14:17:12.501Z,39.20
2018-10-16T14:19:39.975Z,38.70
2018-10-16T14:22:07.784Z,38.20
2018-10-16T14:24:35.215Z,37.60
2018-10-16T14:27:02.711Z,37.00
2018-10-16T14:29:30.142Z,36.40
2018-10-16T14:31:57.715Z,35.70
2018-10-16T14:34:25.167Z,35.20
2018-10-16T14:36:52.533Z,34.60
2018-10-16T14:39:20.007Z,34.10
2018-10-16T14:41:47.452Z,33.60
2018-10-16T14:44:14.930Z,33.10
2018-10-16T14:46:42.332Z,32.40
2018-10-16T14:49:09.731Z,32.20
2018-10-16T14:51:37.176Z,31.80
2018-10-16T14:54:04.675Z,31.40
2018-10-16T14:56:32.916Z,31.00
2018-10-16T14:59:00.391Z,30.70
2018-10-16T15:01:28.140Z,30.30
2018-10-16T15:03:55.646Z,30.10
2018-10-16T15:06:23.104Z,29.80
2018-10-16T15:08:50.534Z,29.50
2018-10-16T15:11:17.965Z,29.20
2018-10-16T15:13:45.430Z,28.90
2018-10-16T15:16:13.156Z,28.60
2018-10-16T15:18:40.450Z,28.50
2018-10-16T15:21:08.050Z,28.30
2018-10-16T15:23:35.485Z,28.10
2018-10-16T15:26:03.053Z,27.90
2018-10-16T15:28:30.620Z,27.70
2018-10-16T15:30:58.772Z,27.50
2018-10-16T15:33:26.468Z,27.30
2018-10-16T15:35:54.006Z,27.20
2018-10-16T15:38:21.356Z,27.00
2018-10-16T15:40:48.785Z,26.90
2018-10-16T15:43:16.233Z,26.70
2018-10-16T15:45:43.676Z,26.60
2018-10-16T15:48:11.262Z,26.40
2018-10-16T15:50:38.651Z,26.30
2018-10-16T15:53:06.062Z,26.20
2018-10-16T15:55:33.547Z,26.00
2018-10-16T15:58:01.002Z,25.90
2018-10-16T16:00:28.420Z,25.60
2018-10-16T16:02:55.881Z,25.70
2018-10-16T16:05:23.320Z,25.50
2018-10-16T16:07:50.787Z,25.40
2018-10-16T16:10:18.190Z,25.30
2018-10-16T16:12:45.742Z,25.20
2018-10-16T16:15:13.632Z,25.10
2018-10-16T16:17:41.376Z,24.90
2018-10-16T16:20:10.393Z,24.90
2018-10-16T16:22:37.868Z,24.70
2018-10-16T16:25:06.906Z,24.70
2018-10-16T16:27:34.573Z,24.50
2018-10-16T16:30:02.049Z,24.50
2018-10-16T16:32:29.522Z,24.40
2018-10-16T16:34:57.006Z,24.30
2018-10-16T16:37:24.490Z,24.10
2018-10-16T16:39:51.963Z,24.10
2018-10-16T16:42:19.440Z,24.00
2018-10-16T16:44:46.869Z,23.90
2018-10-16T16:47:14.367Z,23.80
2018-10-16T16:49:41.890Z,23.70
2018-10-16T16:52:09.468Z,23.60
2018-10-16T16:54:36.852Z,23.60
2018-10-16T16:57:04.684Z,23.50
2018-10-16T16:59:32.117Z,23.30
2018-10-16T17:01:59.648Z,23.30
2018-10-16T17:04:27.099Z,23.30
2018-10-16T17:06:54.558Z,23.20
2018-10-16T17:09:21.994Z,23.10
2018-10-16T17:11:49.541Z,23.00
2018-10-16T17:14:16.979Z,23.00
2018-10-16T17:16:44.415Z,22.90
2018-10-16T17:19:11.845Z,22.80
2018-10-16T17:21:39.295Z,22.70
2018-10-16T17:24:06.733Z,22.70
2018-10-16T17:26:34.225Z,22.60
2018-10-16T17:29:01.852Z,22.50
2018-10-16T17:31:29.247Z,22.50
2018-10-16T17:33:56.742Z,22.40
2018-10-16T17:36:24.217Z,22.40
2018-10-16T17:38:51.722Z,22.30
2018-10-16T17:41:19.168Z,22.20
2018-10-16T17:43:46.586Z,22.20
2018-10-16T17:46:14.415Z,22.10
2018-10-16T17:48:41.858Z,22.10
2018-10-16T17:51:09.375Z,22.00
2018-10-16T17:53:36.805Z,21.90
2018-10-16T17:56:04.639Z,22.00
2018-10-16T17:58:32.097Z,21.90
2018-10-16T18:00:59.536Z,21.80
2018-10-16T18:03:27.023Z,21.80
2018-10-16T18:05:54.529Z,21.70
2018-10-16T18:08:22.063Z,21.70
2018-10-16T18:10:49.564Z,21.70
2018-10-16T18:13:17.060Z,21.60
2018-10-16T18:15:44.529Z,21.50
2018-10-16T18:18:12.108Z,21.50
2018-10-16T18:20:39.525Z,21.40
2018-10-16T18:23:06.979Z,21.40
2018-10-16T18:25:34.456Z,21.40
2018-10-16T18:28:01.938Z,21.30
2018-10-16T18:30:29.372Z,21.10
2018-10-16T18:32:56.858Z,21.20
2018-10-16T18:35:24.365Z,21.20
2018-10-16T18:37:51.970Z,21.20
2018-10-16T18:40:19.403Z,21.10
2018-10-16T18:42:46.855Z,21.10
2018-10-16T18:45:14.803Z,21.00
2018-10-16T18:47:42.178Z,20.90
2018-10-16T18:50:10.844Z,20.90
2018-10-16T18:52:38.304Z,20.90
2018-10-16T18:55:07.703Z,20.80
2018-10-16T18:57:35.246Z,20.70
2018-10-16T19:00:02.782Z,20.70
2018-10-16T19:02:30.249Z,20.70
2018-10-16T19:04:57.715Z,20.60
2018-10-16T19:07:25.214Z,18.00
2018-10-16T19:09:52.764Z,20.60
2018-10-16T19:12:20.338Z,20.50
2018-10-16T19:14:47.811Z,20.50
2018-10-16T19:17:15.274Z,20.40
2018-10-16T19:19:42.722Z,16.90
2018-10-16T19:22:10.213Z,20.40
2018-10-16T19:24:37.733Z,20.40
2018-10-16T19:27:05.714Z,20.30
2018-10-16T19:29:33.171Z,20.30
2018-10-16T19:32:00.654Z,20.30
2018-10-16T19:34:28.188Z,20.20
2018-10-16T19:36:55.668Z,20.20
2018-10-16T19:39:23.173Z,19.70
2018-10-16T19:41:50.681Z,20.10
2018-10-16T19:44:19.120Z,20.10
2018-10-16T19:46:46.777Z,20.00
2018-10-16T19:49:14.353Z,20.00
2018-10-16T19:51:41.933Z,20.00
2018-10-16T19:54:09.463Z,19.90
2018-10-16T19:56:36.976Z,16.90
2018-10-16T19:59:04.573Z,19.80
2018-10-16T20:01:32.150Z,19.80
2018-10-16T20:03:59.712Z,19.80
2018-10-16T20:06:27.258Z,19.70
2018-10-16T20:08:54.869Z,19.60
2018-10-16T20:11:23.253Z,19.60
2018-10-16T20:13:50.882Z,19.60
2018-10-16T20:16:18.459Z,19.60
2018-10-16T20:18:46.055Z,19.50
2018-10-16T20:21:13.639Z,19.50
2018-10-16T20:23:41.196Z,19.50
2018-10-16T20:26:08.733Z,19.40
2018-10-16T20:28:36.353Z,19.40
2018-10-16T20:31:04.061Z,18.70
2018-10-16T20:33:31.560Z,19.30
2018-10-16T20:35:59.151Z,19.30
2018-10-16T20:38:26.756Z,19.20
2018-10-16T20:40:54.323Z,19.20
2018-10-16T20:43:21.883Z,19.20
2018-10-16T20:45:49.418Z,19.20
2018-10-16T20:48:17.105Z,19.10
2018-10-16T20:50:44.653Z,19.10
2018-10-16T20:53:12.276Z,19.00
2018-10-16T20:55:39.800Z,19.00
2018-10-16T20:58:07.412Z,19.00
2018-10-16T21:00:34.968Z,19.00
2018-10-16T21:03:02.510Z,15.90
2018-10-16T21:05:30.230Z,18.90
2018-10-16T21:07:57.720Z,18.90
2018-10-16T21:10:25.268Z,18.80
2018-10-16T21:12:52.909Z,18.80
2018-10-16T21:15:20.451Z,18.90
2018-10-16T21:17:47.958Z,18.80
2018-10-16T21:20:15.445Z,16.20
2018-10-16T21:22:43.070Z,18.70
2018-10-16T21:25:10.729Z,18.70
2018-10-16T21:27:38.280Z,17.70
2018-10-16T21:30:07.642Z,18.70
2018-10-16T21:32:35.148Z,17.40
2018-10-16T21:35:02.692Z,18.60
2018-10-16T21:37:30.189Z,18.20
2018-10-16T21:39:57.679Z,18.50
2018-10-16T21:42:25.239Z,18.50
2018-10-16T21:44:52.744Z,18.50
2018-10-16T21:47:20.351Z,18.40
2018-10-16T21:49:47.960Z,18.40
2018-10-16T21:52:15.533Z,18.30
2018-10-16T21:54:43.031Z,18.30
2018-10-16T21:57:10.865Z,18.30
2018-10-16T21:59:38.555Z,18.30
2018-10-16T22:02:11.565Z,17.00
2018-10-16T22:04:40.243Z,18.30
2018-10-16T22:07:08.082Z,18.30
2018-10-16T22:09:35.534Z,18.20
2018-10-16T22:12:03.104Z,16.90
2018-10-16T22:14:30.614Z,18.20
2018-10-16T22:16:58.326Z,18.20
2018-10-16T22:19:25.882Z,18.10
2018-10-16T22:21:53.339Z,18.20
2018-10-16T22:24:20.861Z,18.10
2018-10-16T22:26:48.375Z,18.10
2018-10-16T22:29:15.872Z,18.00
2018-10-16T22:31:43.433Z,17.70
2018-10-16T22:34:10.950Z,18.00
2018-10-16T22:36:38.456Z,18.00
2018-10-16T22:39:08.129Z,18.00
2018-10-16T22:41:35.841Z,18.00
2018-10-16T22:44:03.396Z,16.10
2018-10-16T22:46:30.928Z,18.10
2018-10-16T22:48:58.478Z,18.00
2018-10-16T22:51:26.024Z,18.10
2018-10-16T22:53:53.527Z,16.30
2018-10-16T22:56:21.059Z,18.10
2018-10-16T23:01:26.149Z,18.10
2018-10-16T23:03:53.638Z,17.70
2018-10-16T23:06:21.202Z,18.10
2018-10-16T23:08:48.711Z,18.10
2018-10-16T23:11:16.260Z,18.00
2018-10-16T23:13:43.762Z,18.10
2018-10-16T23:16:11.285Z,18.00
2018-10-16T23:18:38.831Z,18.00
2018-10-16T23:21:06.326Z,18.00
2018-10-16T23:23:33.842Z,16.70
2018-10-16T23:26:01.396Z,17.90
2018-10-16T23:28:28.898Z,17.80
2018-10-16T23:30:56.467Z,17.80
2018-10-16T23:33:24.038Z,17.80
2018-10-16T23:35:51.564Z,17.80
2018-10-16T23:38:19.084Z,17.80
2018-10-16T23:40:46.763Z,17.80
2018-10-16T23:43:14.332Z,17.70
2018-10-16T23:45:41.868Z,17.70
2018-10-16T23:48:09.368Z,17.70
2018-10-16T23:50:36.916Z,17.70
2018-10-16T23:53:04.513Z,17.70
2018-10-16T23:55:31.973Z,17.70
2018-10-16T23:57:59.471Z,17.70
